createdAt,value
2023-05-22T00:02:10.149Z,17.20
2023-05-22T00:04:37.149Z,18.65
2023-05-22T00:07:04.273Z,17.35
2023-05-22T00:09:32.226Z,17.80
2023-05-22T00:11:59.280Z,16.52
2023-05-22T00:14:26.317Z,18.65
2023-05-22T00:16:53.757Z,15.32
2023-05-22T00:19:23.216Z,18.83
2023-05-22T00:21:51.513Z,22.13
2023-05-22T00:24:18.613Z,20.35
2023-05-22T00:26:46.604Z,22.98
2023-05-22T00:29:13.631Z,17.63
2023-05-22T00:31:40.865Z,24.55
2023-05-22T00:34:07.955Z,19.42
2023-05-22T00:36:37.135Z,21.25
2023-05-22T00:39:05.213Z,25.10
2023-05-22T00:41:36.404Z,21.80
2023-05-22T00:44:03.475Z,22.15
2023-05-22T00:46:31.464Z,28.33
2023-05-22T00:48:58.518Z,24.30
2023-05-22T00:51:27.054Z,18.38
2023-05-22T00:53:54.774Z,23.17
2023-05-22T00:56:22.690Z,24.92
2023-05-22T00:58:50.257Z,24.20
2023-05-22T01:01:17.990Z,26.75
2023-05-22T01:03:46.294Z,23.40
2023-05-22T01:06:18.692Z,25.55
2023-05-22T01:08:45.854Z,29.48
2023-05-22T01:11:25.511Z,22.75
2023-05-22T01:14:04.787Z,22.13
2023-05-22T01:16:37.438Z,22.75
2023-05-22T01:19:42.199Z,29.73
2023-05-22T01:22:50.158Z,22.45
2023-05-22T01:25:31.725Z,24.52
2023-05-22T01:28:19.024Z,25.87
2023-05-22T01:30:51.932Z,21.90
2023-05-22T01:33:21.737Z,31.27
2023-05-22T01:35:54.166Z,25.67
2023-05-22T01:38:22.082Z,25.60
2023-05-22T01:40:49.576Z,27.55
2023-05-22T01:43:17.901Z,27.73
2023-05-22T01:45:46.149Z,28.52
2023-05-22T01:48:13.208Z,32.33
2023-05-22T01:50:41.985Z,30.00
2023-05-22T01:53:45.455Z,33.03
2023-05-22T01:56:30.735Z,29.67
2023-05-22T01:59:07.805Z,31.52
2023-05-22T02:01:39.023Z,30.67
2023-05-22T02:04:07.136Z,31.38
2023-05-22T02:06:36.328Z,28.77
2023-05-22T02:09:03.565Z,35.45
2023-05-22T02:11:34.678Z,36.65
2023-05-22T02:14:02.347Z,38.97
2023-05-22T02:16:30.368Z,36.08
2023-05-22T02:19:07.912Z,39.60
2023-05-22T02:21:36.272Z,42.40
2023-05-22T02:24:03.689Z,39.45
2023-05-22T02:26:31.718Z,44.42
2023-05-22T02:28:59.904Z,44.90
2023-05-22T02:31:27.165Z,53.50
2023-05-22T02:33:54.594Z,41.65
2023-05-22T02:36:21.643Z,46.67
2023-05-22T02:38:48.731Z,47.25
2023-05-22T02:41:15.912Z,44.40
2023-05-22T02:43:43.726Z,41.97
2023-05-22T02:46:12.212Z,45.08
2023-05-22T02:48:39.669Z,46.15
2023-05-22T02:51:07.281Z,50.67
2023-05-22T02:53:40.384Z,47.38
2023-05-22T02:56:08.721Z,46.90
2023-05-22T02:58:36.010Z,47.15
2023-05-22T03:01:03.662Z,46.28
2023-05-22T03:03:32.161Z,48.30
2023-05-22T03:05:59.512Z,51.83
2023-05-22T03:08:28.364Z,48.60
2023-05-22T03:10:58.300Z,52.08
2023-05-22T03:13:25.762Z,47.22
2023-05-22T03:15:53.684Z,57.78
2023-05-22T03:18:21.941Z,57.53
2023-05-22T03:20:49.632Z,48.35
2023-05-22T03:23:16.930Z,58.63
2023-05-22T03:25:44.418Z,62.78
2023-05-22T03:28:11.459Z,59.38
2023-05-22T03:30:41.039Z,63.05
2023-05-22T03:33:14.011Z,70.07
2023-05-22T03:35:43.376Z,63.30
2023-05-22T03:38:11.660Z,70.28
2023-05-22T03:40:39.105Z,73.63
2023-05-22T03:43:06.753Z,70.70
2023-05-22T03:45:33.861Z,75.68
2023-05-22T03:48:02.082Z,78.50
2023-05-22T03:50:29.806Z,76.93
2023-05-22T03:52:56.959Z,79.05
2023-05-22T03:55:23.904Z,92.15
2023-05-22T03:57:51.519Z,93.82
2023-05-22T04:00:19.822Z,99.65
2023-05-22T04:02:47.082Z,94.20
2023-05-22T04:05:14.366Z,109.95
2023-05-22T04:07:41.494Z,95.53
2023-05-22T04:10:09.213Z,96.45
2023-05-22T04:12:36.388Z,104.53
2023-05-22T04:15:03.506Z,106.45
2023-05-22T04:17:34.253Z,102.95
2023-05-22T04:20:01.468Z,111.05
2023-05-22T04:22:31.050Z,109.20
2023-05-22T04:24:58.243Z,113.75
2023-05-22T04:27:26.471Z,108.72
2023-05-22T04:29:53.697Z,123.68
2023-05-22T04:32:22.074Z,125.30
2023-05-22T04:34:53.271Z,116.18
2023-05-22T04:37:20.687Z,127.60
2023-05-22T04:39:52.964Z,135.65
2023-05-22T04:42:20.636Z,136.75
2023-05-22T04:44:48.442Z,128.88
2023-05-22T04:47:15.486Z,128.02
2023-05-22T04:49:43.741Z,136.50
2023-05-22T04:52:11.750Z,138.30
2023-05-22T04:54:39.110Z,124.15
2023-05-22T04:57:07.621Z,141.35
2023-05-22T04:59:40.329Z,143.00
2023-05-22T05:02:08.727Z,153.77
2023-05-22T05:04:36.471Z,148.07
2023-05-22T05:07:05.144Z,159.35
2023-05-22T05:09:32.709Z,132.60
2023-05-22T05:12:03.340Z,153.13
2023-05-22T05:14:30.485Z,140.77
2023-05-22T05:16:58.764Z,144.60
2023-05-22T05:19:26.305Z,150.52
2023-05-22T05:21:53.369Z,151.25
2023-05-22T05:24:24.238Z,156.68
2023-05-22T05:26:52.618Z,146.57
2023-05-22T05:29:20.383Z,154.20
2023-05-22T05:31:57.379Z,142.88
2023-05-22T05:34:36.151Z,154.45
2023-05-22T05:37:05.387Z,158.77
2023-05-22T05:39:33.033Z,153.13
2023-05-22T05:42:02.810Z,152.70
2023-05-22T05:44:33.523Z,164.38
2023-05-22T05:47:02.208Z,151.90
2023-05-22T05:49:30.085Z,162.93
2023-05-22T05:51:58.061Z,155.25
2023-05-22T05:54:27.153Z,151.93
2023-05-22T05:56:57.332Z,140.48
2023-05-22T05:59:25.133Z,155.32
2023-05-22T06:02:10.705Z,142.65
2023-05-22T06:04:38.628Z,152.05
2023-05-22T06:07:08.780Z,146.15
2023-05-22T06:09:46.030Z,156.88
2023-05-22T06:12:17.020Z,145.18
2023-05-22T06:14:46.427Z,143.27
2023-05-22T06:17:15.582Z,131.82
2023-05-22T06:19:44.171Z,130.25
2023-05-22T06:22:11.453Z,129.30
2023-05-22T06:24:40.845Z,127.72
2023-05-22T06:27:13.562Z,139.75
2023-05-22T06:29:43.652Z,122.00
2023-05-22T06:32:12.637Z,115.68
2023-05-22T06:34:44.388Z,108.85
2023-05-22T06:37:12.841Z,92.20
2023-05-22T06:39:42.974Z,100.65
2023-05-22T06:42:13.930Z,103.57
2023-05-22T06:45:00.222Z,88.00
2023-05-22T06:47:37.116Z,62.30
2023-05-22T06:50:07.133Z,69.20
2023-05-22T06:52:34.841Z,68.10
2023-05-22T06:55:05.797Z,81.07
2023-05-22T06:57:44.256Z,99.18
2023-05-22T07:00:13.247Z,90.28
2023-05-22T07:03:18.487Z,94.30
2023-05-22T07:06:06.928Z,93.57
2023-05-22T07:08:35.191Z,101.82
2023-05-22T07:11:07.913Z,92.43
2023-05-22T07:13:37.179Z,108.63
2023-05-22T07:16:04.313Z,97.95
2023-05-22T07:18:32.784Z,100.53
2023-05-22T07:21:01.671Z,83.07
2023-05-22T07:23:30.470Z,85.85
2023-05-22T07:25:57.985Z,85.75
2023-05-22T07:28:31.321Z,85.90
2023-05-22T07:31:08.016Z,85.05
2023-05-22T07:33:35.369Z,91.07
2023-05-22T07:36:03.529Z,81.90
2023-05-22T07:38:31.044Z,76.55
2023-05-22T07:41:02.975Z,67.32
2023-05-22T07:43:31.706Z,79.57
2023-05-22T07:46:12.640Z,74.53
2023-05-22T07:48:50.453Z,98.82
2023-05-22T07:51:17.773Z,78.70
2023-05-22T07:53:48.124Z,79.97
2023-05-22T07:56:15.251Z,78.93
2023-05-22T07:58:42.388Z,76.95
2023-05-22T08:01:09.923Z,81.35
2023-05-22T08:03:37.299Z,80.15
2023-05-22T08:06:05.711Z,82.63
2023-05-22T08:08:34.000Z,79.93
2023-05-22T08:11:04.419Z,91.78
2023-05-22T08:13:33.199Z,91.13
2023-05-22T08:16:04.798Z,85.88
2023-05-22T08:18:31.819Z,84.47
2023-05-22T08:21:00.373Z,82.22
2023-05-22T08:23:27.464Z,82.80
2023-05-22T08:25:54.510Z,86.00
2023-05-22T08:28:21.677Z,82.93
2023-05-22T08:30:48.735Z,77.97
2023-05-22T08:33:17.035Z,67.28
2023-05-22T08:35:46.858Z,72.28
2023-05-22T08:38:15.124Z,62.63
2023-05-22T08:40:46.406Z,73.50
2023-05-22T08:43:13.737Z,74.33
2023-05-22T08:45:43.987Z,64.97
2023-05-22T08:48:14.333Z,74.38
2023-05-22T08:50:43.606Z,71.22
2023-05-22T08:53:13.610Z,83.78
2023-05-22T08:55:41.446Z,70.72
2023-05-22T08:58:10.954Z,70.38
2023-05-22T09:00:41.902Z,69.82
2023-05-22T09:03:13.990Z,68.47
2023-05-22T09:05:43.201Z,67.65
2023-05-22T09:08:19.767Z,74.78
2023-05-22T09:10:48.296Z,66.82
2023-05-22T09:13:30.251Z,77.55
2023-05-22T09:16:08.198Z,72.15
2023-05-22T09:18:37.466Z,71.70
2023-05-22T09:21:11.298Z,80.68
2023-05-22T09:23:42.469Z,86.70
2023-05-22T09:26:10.109Z,75.22
2023-05-22T09:28:38.223Z,78.93
2023-05-22T09:31:06.474Z,82.22
2023-05-22T09:33:34.718Z,89.45
2023-05-22T09:36:07.877Z,84.55
2023-05-22T09:38:35.028Z,92.47
2023-05-22T09:41:03.652Z,88.00
2023-05-22T09:43:31.329Z,86.63
2023-05-22T09:46:02.506Z,90.30
2023-05-22T09:48:33.790Z,81.82
2023-05-22T09:51:01.907Z,91.32
2023-05-22T09:53:30.092Z,82.53
2023-05-22T09:56:00.160Z,78.82
2023-05-22T09:58:31.465Z,83.88
2023-05-22T10:00:59.629Z,76.75
2023-05-22T10:03:27.516Z,79.93
2023-05-22T10:05:58.743Z,76.45
2023-05-22T10:08:29.486Z,81.45
2023-05-22T10:10:59.723Z,74.40
2023-05-22T10:13:28.061Z,80.55
2023-05-22T10:15:57.063Z,83.25
2023-05-22T10:18:25.865Z,85.03
2023-05-22T10:20:53.763Z,79.93
2023-05-22T10:23:22.909Z,84.20
2023-05-22T10:25:50.803Z,71.78
2023-05-22T10:28:27.687Z,77.32
2023-05-22T10:31:38.894Z,79.80
2023-05-22T10:34:47.848Z,72.30
2023-05-22T10:37:21.735Z,73.13
2023-05-22T10:40:05.304Z,70.43
2023-05-22T10:42:32.799Z,70.72
2023-05-22T10:45:04.569Z,67.50
2023-05-22T10:47:34.270Z,66.93
2023-05-22T10:50:09.836Z,68.50
2023-05-22T10:52:38.939Z,61.63
2023-05-22T10:55:10.525Z,55.47
2023-05-22T10:57:39.598Z,55.75
2023-05-22T11:00:15.957Z,60.22
2023-05-22T11:02:46.893Z,60.30
2023-05-22T11:05:25.501Z,58.58
2023-05-22T11:07:52.580Z,56.00
2023-05-22T11:10:52.913Z,59.95
2023-05-22T11:13:20.419Z,57.03
2023-05-22T11:15:48.514Z,59.95
2023-05-22T11:18:17.163Z,55.72
2023-05-22T11:20:45.055Z,53.80
2023-05-22T11:23:12.372Z,48.47
2023-05-22T11:25:41.449Z,53.80
2023-05-22T11:28:10.785Z,49.65
2023-05-22T11:30:38.975Z,48.35
2023-05-22T11:33:08.836Z,47.10
2023-05-22T11:35:36.304Z,50.60
2023-05-22T11:38:07.270Z,52.25
2023-05-22T11:40:34.651Z,51.75
2023-05-22T11:43:02.605Z,50.28
2023-05-22T11:45:29.633Z,54.20
2023-05-22T11:47:57.584Z,50.90
2023-05-22T11:50:40.095Z,56.20
2023-05-22T11:53:08.640Z,52.60
2023-05-22T11:55:35.890Z,55.05
2023-05-22T11:58:03.029Z,51.80
2023-05-22T12:00:31.962Z,53.13
2023-05-22T12:02:59.456Z,49.67
2023-05-22T12:05:26.671Z,48.05
2023-05-22T12:07:53.850Z,46.35
2023-05-22T12:10:22.416Z,43.97
2023-05-22T12:12:49.729Z,48.20
2023-05-22T12:15:21.155Z,46.15
2023-05-22T12:17:48.788Z,45.53
2023-05-22T12:24:56.038Z,47.58
2023-05-22T12:27:23.195Z,47.92
2023-05-22T12:46:38.583Z,43.67
2023-05-22T12:49:06.012Z,45.03
2023-05-22T12:51:33.061Z,46.70
2023-05-22T12:54:01.734Z,48.63
2023-05-22T12:56:30.474Z,46.75
2023-05-22T12:58:58.562Z,46.10
2023-05-22T13:01:26.339Z,55.17
2023-05-22T13:03:53.488Z,51.90
2023-05-22T13:06:21.034Z,59.17
2023-05-22T13:08:48.080Z,63.45
2023-05-22T13:11:15.104Z,68.18
2023-05-22T13:13:42.092Z,77.95
2023-05-22T13:16:10.682Z,70.95
2023-05-22T13:18:37.932Z,64.32
2023-05-22T13:21:05.096Z,75.70
2023-05-22T13:23:32.196Z,79.25
2023-05-22T13:26:01.986Z,84.20
2023-05-22T13:28:29.232Z,85.03
2023-05-22T13:30:56.655Z,79.30
2023-05-22T13:33:23.647Z,78.95
2023-05-22T13:35:50.681Z,74.25
2023-05-22T13:38:17.632Z,71.50
2023-05-22T13:40:46.185Z,69.28
2023-05-22T13:43:14.700Z,67.70
2023-05-22T13:45:42.018Z,70.10
2023-05-22T13:48:11.439Z,63.63
2023-05-22T13:50:38.502Z,65.30
2023-05-22T13:53:05.558Z,58.58
2023-05-22T13:55:32.550Z,67.03
2023-05-22T13:57:59.612Z,61.40
2023-05-22T14:00:27.051Z,62.08
2023-05-22T14:02:54.126Z,61.63
2023-05-22T14:05:23.866Z,70.30
2023-05-22T14:07:51.339Z,63.70
2023-05-22T14:10:18.498Z,71.85
2023-05-22T14:12:45.621Z,74.70
2023-05-22T14:15:16.103Z,67.15
2023-05-22T14:17:43.389Z,69.60
2023-05-22T14:20:11.054Z,67.45
2023-05-22T14:22:56.067Z,69.63
2023-05-22T14:25:25.811Z,65.95
2023-05-22T14:27:52.950Z,66.22
2023-05-22T14:30:20.122Z,56.90
2023-05-22T14:32:48.192Z,61.83
2023-05-22T14:35:16.852Z,58.78
2023-05-22T14:37:44.639Z,62.83
2023-05-22T14:40:14.316Z,62.00
2023-05-22T14:42:43.385Z,58.88
2023-05-22T14:45:10.804Z,57.35
2023-05-22T14:47:38.292Z,62.25
2023-05-22T14:50:18.248Z,53.78
2023-05-22T14:52:46.496Z,60.03
2023-05-22T14:55:13.562Z,58.20
2023-05-22T14:57:40.591Z,58.05
2023-05-22T15:00:12.256Z,54.67
2023-05-22T15:02:39.856Z,51.80
2023-05-22T15:05:07.430Z,54.63
2023-05-22T15:10:05.975Z,57.90
2023-05-22T15:12:33.419Z,49.38
2023-05-22T15:15:01.894Z,55.10
2023-05-22T15:17:29.926Z,49.60
2023-05-22T15:19:57.094Z,46.97
2023-05-22T15:22:24.096Z,47.65
2023-05-22T15:25:07.001Z,52.67
2023-05-22T15:27:35.675Z,59.78
2023-05-22T15:30:04.560Z,48.33
2023-05-22T15:32:36.369Z,45.72
2023-05-22T15:35:05.660Z,49.83
2023-05-22T15:37:34.010Z,50.97
2023-05-22T15:40:06.089Z,49.13
2023-05-22T15:42:35.454Z,51.95
2023-05-22T15:45:02.866Z,54.08
2023-05-22T15:47:31.344Z,53.47
2023-05-22T15:49:58.468Z,50.33
2023-05-22T15:52:26.869Z,55.15
2023-05-22T15:54:56.387Z,58.20
2023-05-22T15:57:24.246Z,56.15
2023-05-22T15:59:51.281Z,52.10
2023-05-22T16:02:19.043Z,56.25
2023-05-22T16:04:46.318Z,51.28
2023-05-22T16:07:13.396Z,53.42
2023-05-22T16:09:41.936Z,45.85
2023-05-22T16:12:11.649Z,50.40
2023-05-22T16:14:40.070Z,54.10
2023-05-22T16:17:07.899Z,47.88
2023-05-22T16:19:35.163Z,41.47
2023-05-22T16:22:03.808Z,49.22
2023-05-22T16:24:31.703Z,46.17
2023-05-22T16:27:00.003Z,42.75
2023-05-22T16:29:27.078Z,46.10
2023-05-22T16:31:54.307Z,52.30
2023-05-22T16:34:22.793Z,40.45
2023-05-22T16:36:49.834Z,49.15
2023-05-22T16:39:16.954Z,40.47
2023-05-22T16:41:44.141Z,43.65
2023-05-22T16:44:11.226Z,44.08
2023-05-22T16:46:42.480Z,45.45
2023-05-22T16:49:09.660Z,45.17
2023-05-22T16:51:36.932Z,39.30
2023-05-22T16:54:04.077Z,37.45
2023-05-22T16:56:34.189Z,39.75
2023-05-22T16:59:02.056Z,46.53
2023-05-22T17:01:29.439Z,43.33
2023-05-22T17:03:56.581Z,37.90
2023-05-22T17:06:23.686Z,44.55
2023-05-22T17:08:52.567Z,39.63
2023-05-22T17:11:19.680Z,42.15
2023-05-22T17:13:46.675Z,37.40
2023-05-22T17:16:13.849Z,40.50
2023-05-22T17:18:40.865Z,37.78
2023-05-22T17:21:09.389Z,43.47
2023-05-22T17:23:37.405Z,42.42
2023-05-22T17:26:04.874Z,33.05
2023-05-22T17:28:32.134Z,38.30
2023-05-22T17:30:59.301Z,39.45
2023-05-22T17:33:27.204Z,36.17
2023-05-22T17:35:54.346Z,32.90
2023-05-22T17:38:22.260Z,33.60
2023-05-22T17:40:49.526Z,35.97
2023-05-22T17:43:19.085Z,40.47
2023-05-22T17:45:53.257Z,33.92
2023-05-22T17:48:27.262Z,37.33
2023-05-22T17:50:54.526Z,32.88
2023-05-22T17:53:21.598Z,40.67
2023-05-22T17:55:51.062Z,43.20
2023-05-22T17:58:19.861Z,44.65
2023-05-22T18:00:48.845Z,44.72
2023-05-22T18:03:20.222Z,38.30
2023-05-22T18:05:48.863Z,38.38
2023-05-22T18:08:16.134Z,39.53
2023-05-22T18:10:43.563Z,45.85
2023-05-22T18:13:11.432Z,37.35
2023-05-22T18:15:38.558Z,39.00
2023-05-22T18:18:05.832Z,41.70
2023-05-22T18:20:37.763Z,35.17
2023-05-22T18:23:04.921Z,40.38
2023-05-22T18:25:31.966Z,37.90
2023-05-22T18:28:00.190Z,33.00
2023-05-22T18:30:27.198Z,34.85
2023-05-22T18:32:54.262Z,44.83
2023-05-22T18:35:21.464Z,36.53
2023-05-22T18:37:48.618Z,47.88
2023-05-22T18:40:16.137Z,46.75
2023-05-22T18:42:43.884Z,45.58
2023-05-22T18:45:14.381Z,43.38
2023-05-22T18:47:41.715Z,43.58
2023-05-22T18:50:09.255Z,50.47
2023-05-22T18:52:36.492Z,49.20
2023-05-22T18:55:05.075Z,47.40
2023-05-22T18:57:36.079Z,44.35
2023-05-22T19:00:03.724Z,48.35
2023-05-22T19:02:33.422Z,45.03
2023-05-22T19:05:00.575Z,49.53
2023-05-22T19:07:27.801Z,45.83
2023-05-22T19:09:54.772Z,46.47
2023-05-22T19:12:22.811Z,48.40
2023-05-22T19:14:57.675Z,49.28
2023-05-22T19:17:24.700Z,57.38
2023-05-22T19:19:51.776Z,48.47
2023-05-22T19:22:20.147Z,53.28
2023-05-22T19:24:48.367Z,50.13
2023-05-22T19:27:17.905Z,53.30
2023-05-22T19:29:44.976Z,49.80
2023-05-22T19:32:12.206Z,49.47
2023-05-22T19:34:39.525Z,53.53
2023-05-22T19:37:08.655Z,56.05
2023-05-22T19:39:35.747Z,52.50
2023-05-22T19:42:02.751Z,58.30
2023-05-22T19:44:29.797Z,56.55
2023-05-22T19:46:57.140Z,55.92
2023-05-22T19:49:24.175Z,53.72
2023-05-22T19:51:51.657Z,60.45
2023-05-22T19:54:19.578Z,56.22
2023-05-22T19:56:46.562Z,62.47
2023-05-22T19:59:14.895Z,61.20
2023-05-22T20:01:41.889Z,61.58
2023-05-22T20:04:10.117Z,54.08
2023-05-22T20:06:37.165Z,62.53
2023-05-22T20:09:05.857Z,66.30
2023-05-22T20:11:33.195Z,60.88
2023-05-22T20:14:02.631Z,63.50
2023-05-22T20:16:29.881Z,58.65
2023-05-22T20:18:57.996Z,65.65
2023-05-22T20:21:25.092Z,56.05
2023-05-22T20:23:52.993Z,66.50
2023-05-22T20:26:20.280Z,71.22
2023-05-22T20:28:47.346Z,60.70
2023-05-22T20:31:14.882Z,61.88
2023-05-22T20:33:41.946Z,60.13
2023-05-22T20:36:09.135Z,50.53
2023-05-22T20:38:37.202Z,59.17
2023-05-22T20:41:08.156Z,60.05
2023-05-22T20:43:39.405Z,61.38
2023-05-22T20:46:06.578Z,64.97
2023-05-22T20:48:33.585Z,65.60
2023-05-22T20:51:00.588Z,63.38
2023-05-22T20:53:27.902Z,56.28
2023-05-22T20:55:54.988Z,65.78
2023-05-22T20:58:23.245Z,55.53
2023-05-22T21:00:51.096Z,57.50
2023-05-22T21:03:18.177Z,67.90
2023-05-22T21:05:45.267Z,67.80
2023-05-22T21:08:12.227Z,56.47
2023-05-22T21:10:39.404Z,61.45
2023-05-22T21:13:08.037Z,63.10
2023-05-22T21:15:35.077Z,62.88
2023-05-22T21:18:02.197Z,57.58
2023-05-22T21:20:30.508Z,59.13
2023-05-22T21:22:57.588Z,59.40
2023-05-22T21:25:25.442Z,53.92
2023-05-22T21:27:54.548Z,55.15
2023-05-22T21:30:23.479Z,64.65
2023-05-22T21:32:50.612Z,52.35
2023-05-22T21:35:17.674Z,60.65
2023-05-22T21:37:46.293Z,58.60
2023-05-22T21:40:13.496Z,54.80
2023-05-22T21:42:46.292Z,55.10
2023-05-22T21:45:14.515Z,60.40
2023-05-22T21:47:41.863Z,54.03
2023-05-22T21:50:09.302Z,54.30
2023-05-22T21:52:36.510Z,52.35
2023-05-22T21:55:04.136Z,53.88
2023-05-22T21:57:31.269Z,54.42
2023-05-22T21:59:58.237Z,51.03
2023-05-22T22:02:25.301Z,48.47
2023-05-22T22:04:52.351Z,53.38
2023-05-22T22:07:19.309Z,54.85
2023-05-22T22:09:46.367Z,44.63
2023-05-22T22:12:13.347Z,49.90
2023-05-22T22:14:40.427Z,53.28
2023-05-22T22:17:08.320Z,55.45
2023-05-22T22:19:36.175Z,49.15
2023-05-22T22:22:03.482Z,56.22
2023-05-22T22:24:30.494Z,50.50
2023-05-22T22:26:58.812Z,54.58
2023-05-22T22:29:26.532Z,51.97
2023-05-22T22:31:56.558Z,50.17
2023-05-22T22:34:23.596Z,52.95
2023-05-22T22:36:50.890Z,52.22
2023-05-22T22:39:17.890Z,57.97
2023-05-22T22:41:45.887Z,60.67
2023-05-22T22:44:12.953Z,61.17
2023-05-22T22:46:40.383Z,63.00
2023-05-22T22:49:08.815Z,54.88
2023-05-22T22:51:36.786Z,53.22
2023-05-22T22:54:03.963Z,54.53
2023-05-22T22:56:31.340Z,60.03
2023-05-22T22:58:58.407Z,49.83
2023-05-22T23:01:26.915Z,56.20
2023-05-22T23:03:55.774Z,57.47
2023-05-22T23:06:24.884Z,60.20
2023-05-22T23:08:53.331Z,62.90
2023-05-22T23:11:20.352Z,59.33
2023-05-22T23:18:16.437Z,53.90
2023-05-22T23:20:43.614Z,59.00
2023-05-22T23:23:10.660Z,59.83
2023-05-22T23:25:38.097Z,62.50
2023-05-22T23:28:08.416Z,63.72
2023-05-22T23:30:35.527Z,59.42
2023-05-22T23:33:06.375Z,53.17
2023-05-22T23:35:34.589Z,61.55
2023-05-22T23:38:02.835Z,53.63
2023-05-22T23:40:29.887Z,61.28
2023-05-22T23:42:58.000Z,55.22
2023-05-22T23:45:24.994Z,60.53
2023-05-22T23:47:52.372Z,58.13
2023-05-22T23:50:19.798Z,70.05
2023-05-22T23:52:48.259Z,65.82
2023-05-22T23:55:15.740Z,66.43
2023-05-22T23:57:42.950Z,61.05
